Time;durP1;ratioP1;P1;durP2;ratioP2;P2;SDS_P1;SDS_P2;PMS_P1;PMS_P2;Temp;Humidity;BMP_temperature;BMP_pressure;BME280_temperature;BME280_humidity;BME280_pressure;Samples;Min_cycle;Max_cycle;Signal;HPM_P1;HPM_P2
2021/11/17 02:26:22;;;;;;;87.17;34.50;;;8.10;99.90;;;;;;5155040;27;40368;-77
2021/11/17 02:29:04;;;;;;;87.47;31.50;;;8.10;99.90;;;;;;5102969;27;39173;-77
2021/11/17 02:31:33;;;;;;;85.05;32.90;;;8.10;99.90;;;;;;5133312;27;48488;-77
2021/11/17 02:34:27;;;;;;;82.97;31.97;;;8.10;99.90;;;;;;5133551;27;38333;-77
2021/11/17 02:36:56;;;;;;;97.27;34.27;;;8.10;99.90;;;;;;5135086;27;47203;-77
2021/11/17 02:39:44;;;;;;;84.87;31.77;;;8.20;99.90;;;;;;5133359;27;39532;-77
2021/11/17 02:42:29;;;;;;;78.90;31.30;;;8.20;99.90;;;;;;5130679;27;40138;-77
2021/11/17 02:45:18;;;;;;;90.10;32.93;;;8.20;99.90;;;;;;5135064;27;37577;-77
2021/11/17 02:48:24;;;;;;;85.27;33.37;;;8.20;99.90;;;;;;5119587;27;48712;-77
2021/11/17 02:51:25;;;;;;;83.03;32.80;;;8.30;99.90;;;;;;5132501;27;48742;-77
2021/11/17 02:54:08;;;;;;;90.87;34.30;;;8.30;99.90;;;;;;5137338;27;49772;-77
2021/11/17 02:56:46;;;;;;;96.57;36.50;;;8.30;99.90;;;;;;5106284;27;47006;-77
2021/11/17 02:59:23;;;;;;;87.60;33.97;;;8.30;99.90;;;;;;5116590;27;39768;-77
2021/11/17 03:02:15;;;;;;;90.80;36.07;;;8.30;99.90;;;;;;5117728;27;39642;-78
2021/11/17 03:04:57;;;;;;;89.10;34.67;;;8.30;99.90;;;;;;5116136;27;47345;-77
2021/11/17 03:07:32;;;;;;;96.87;37.97;;;8.30;99.90;;;;;;5123686;27;36407;-75
2021/11/17 03:10:21;;;;;;;96.83;36.07;;;8.30;99.90;;;;;;5127574;27;38693;-77
2021/11/17 03:13:22;;;;;;;98.07;38.90;;;8.30;99.90;;;;;;5122190;27;47393;-76
2021/11/17 03:16:06;;;;;;;97.50;37.33;;;8.30;99.90;;;;;;5119228;27;48518;-77
2021/11/17 03:18:47;;;;;;;99.53;37.30;;;8.30;99.90;;;;;;5118918;27;48374;-77
2021/11/17 03:21:32;;;;;;;96.13;37.43;;;8.30;99.90;;;;;;5114486;27;38792;-77
2021/11/17 03:24:13;;;;;;;98.40;36.60;;;8.40;99.90;;;;;;5123781;27;39799;-77
2021/11/17 03:26:42;;;;;;;90.77;37.20;;;8.40;99.90;;;;;;5123704;27;47239;-76
2021/11/17 03:29:24;;;;;;;98.93;38.80;;;8.40;99.90;;;;;;5130943;27;38565;-76
2021/11/17 03:31:50;;;;;;;99.80;39.10;;;8.30;99.90;;;;;;5118498;27;38795;-78
2021/11/17 03:34:28;;;;;;;109.87;40.77;;;8.30;99.90;;;;;;5132162;27;39378;-76
2021/11/17 03:36:54;;;;;;;114.93;43.57;;;8.30;99.90;;;;;;5138941;27;37474;-78
2021/11/17 03:39:52;;;;;;;125.37;45.73;;;8.30;99.90;;;;;;5136764;27;36341;-78
2021/11/17 03:42:49;;;;;;;130.10;44.93;;;8.20;99.90;;;;;;5123351;27;37890;-78
2021/11/17 03:45:53;;;;;;;125.50;43.13;;;8.20;99.90;;;;;;5122490;27;38670;-78
2021/11/17 03:48:53;;;;;;;137.23;45.43;;;8.20;99.90;;;;;;5088639;27;39664;-77
2021/11/17 03:51:41;;;;;;;129.80;45.80;;;8.20;99.90;;;;;;5131595;27;37629;-77
2021/11/17 03:54:19;;;;;;;136.47;46.77;;;8.10;99.90;;;;;;5127782;27;40761;-78
2021/11/17 03:57:06;;;;;;;132.60;44.80;;;8.20;99.90;;;;;;5122355;27;40020;-78
2021/11/17 03:59:44;;;;;;;128.17;44.60;;;8.20;99.90;;;;;;5133719;27;47414;-78
2021/11/17 04:02:16;;;;;;;149.37;50.47;;;8.20;99.90;;;;;;5131090;27;38418;-78
2021/11/17 04:04:55;;;;;;;156.98;51.25;;;8.20;99.90;;;;;;5145452;27;39861;-78
2021/11/17 04:07:48;;;;;;;130.13;47.17;;;8.30;99.90;;;;;;5142968;27;39615;-78
2021/11/17 04:10:20;;;;;;;139.90;49.77;;;8.30;99.90;;;;;;5132630;27;38899;-77
2021/11/17 04:12:46;;;;;;;128.88;46.78;;;8.30;99.90;;;;;;5139088;27;38053;-77
2021/11/17 04:15:37;;;;;;;120.97;45.63;;;8.30;99.90;;;;;;5131524;27;39029;-77
2021/11/17 04:18:12;;;;;;;140.13;49.90;;;8.30;99.90;;;;;;5123275;27;38911;-78
2021/11/17 04:20:41;;;;;;;139.83;47.93;;;8.20;99.90;;;;;;5123147;27;37322;-78
2021/11/17 04:23:43;;;;;;;144.83;48.60;;;8.30;99.90;;;;;;5137909;27;38453;-78
2021/11/17 04:26:39;;;;;;;135.20;47.78;;;8.30;99.90;;;;;;5147256;27;37142;-77
2021/11/17 04:29:30;;;;;;;152.20;48.83;;;8.30;99.90;;;;;;5139384;27;39762;-77
2021/11/17 04:32:20;;;;;;;128.77;46.23;;;8.40;99.90;;;;;;5130141;27;39057;-77
2021/11/17 04:35:12;;;;;;;133.37;46.07;;;8.40;99.90;;;;;;5151228;27;49190;-77
2021/11/17 04:37:50;;;;;;;125.07;44.90;;;8.40;99.90;;;;;;5120999;27;49217;-78
2021/11/17 04:40:19;;;;;;;115.50;43.00;;;8.40;99.90;;;;;;5111515;27;39274;-77
2021/11/17 04:43:24;;;;;;;119.33;45.37;;;8.40;99.90;;;;;;5117352;27;39131;-77
2021/11/17 04:46:28;;;;;;;120.93;44.17;;;8.40;99.90;;;;;;5073607;27;47240;-78
2021/11/17 04:49:03;;;;;;;109.33;41.10;;;8.40;99.90;;;;;;5140391;27;47017;-78
2021/11/17 04:51:47;;;;;;;113.70;43.27;;;8.40;99.90;;;;;;5136143;27;46907;-79
2021/11/17 04:54:25;;;;;;;116.37;41.70;;;8.50;99.90;;;;;;5133799;27;39102;-78
2021/11/17 04:57:13;;;;;;;111.03;42.70;;;8.50;99.90;;;;;;5125058;27;37767;-78
2021/11/17 05:00:17;;;;;;;112.90;42.93;;;8.50;99.90;;;;;;5138198;27;47648;-77
2021/11/17 05:03:07;;;;;;;115.20;44.40;;;8.60;99.90;;;;;;5141023;27;47160;-77
2021/11/17 05:05:53;;;;;;;115.33;43.67;;;8.60;99.90;;;;;;5134980;27;47221;-78
2021/11/17 05:08:31;;;;;;;102.33;39.67;;;8.60;99.90;;;;;;5134609;27;38044;-78
2021/11/17 05:11:13;;;;;;;97.23;39.73;;;8.70;99.90;;;;;;5119813;27;38923;-77
2021/11/17 05:14:04;;;;;;;103.32;40.83;;;8.70;99.90;;;;;;5117620;27;47293;-78
2021/11/17 05:16:53;;;;;;;103.43;40.70;;;8.70;99.90;;;;;;5136965;27;49069;-78
2021/11/17 05:19:43;;;;;;;118.73;41.30;;;8.80;99.90;;;;;;5138528;27;36947;-77
2021/11/17 05:22:21;;;;;;;112.03;40.87;;;8.80;99.90;;;;;;5130644;27;40850;-78
2021/11/17 05:25:18;;;;;;;103.40;40.83;;;8.80;99.90;;;;;;5130212;27;38834;-77
2021/11/17 05:27:56;;;;;;;101.03;39.77;;;8.80;99.90;;;;;;5136866;27;48621;-77
2021/11/17 05:30:34;;;;;;;102.57;40.43;;;8.90;99.90;;;;;;5147156;27;38644;-76
2021/11/17 05:33:21;;;;;;;104.07;37.83;;;8.90;99.90;;;;;;5157907;27;38693;-76
2021/11/17 05:35:59;;;;;;;97.57;39.10;;;8.90;99.90;;;;;;5139408;27;47228;-77
2021/11/17 05:38:43;;;;;;;93.30;38.33;;;8.90;99.90;;;;;;5163157;27;38394;-78
2021/11/17 05:41:21;;;;;;;93.63;37.10;;;8.90;99.90;;;;;;5153678;27;37935;-78
2021/11/17 05:44:14;;;;;;;88.37;36.67;;;9.00;99.90;;;;;;5144304;27;38737;-76
2021/11/17 05:46:58;;;;;;;95.77;37.13;;;9.00;99.90;;;;;;5135432;27;48551;-77
2021/11/17 05:49:49;;;;;;;102.90;41.60;;;9.00;99.90;;;;;;5135779;27;38941;-77
2021/11/17 05:52:34;;;;;;;99.80;37.37;;;9.10;99.90;;;;;;5134058;27;38055;-78
2021/11/17 05:55:15;;;;;;;83.90;35.57;;;9.10;99.90;;;;;;5136978;27;39713;-77
2021/11/17 05:58:07;;;;;;;110.53;40.20;;;9.10;99.90;;;;;;5123924;27;47451;-77
2021/11/17 06:01:02;;;;;;;90.57;37.10;;;9.20;99.90;;;;;;5110263;27;47078;-77
2021/11/17 06:03:37;;;;;;;95.60;37.83;;;9.20;99.90;;;;;;5124624;27;47478;-77
2021/11/17 06:06:03;;;;;;;93.63;38.47;;;9.30;99.90;;;;;;5134663;27;39587;-77
2021/11/17 06:08:29;;;;;;;92.37;37.10;;;9.30;99.90;;;;;;5138462;27;37110;-77
2021/11/17 06:10:59;;;;;;;93.50;36.70;;;9.30;99.90;;;;;;5136496;27;38677;-77
2021/11/17 06:13:27;;;;;;;92.70;38.10;;;9.30;99.90;;;;;;5122252;27;36411;-77
2021/11/17 06:15:54;;;;;;;85.53;36.10;;;9.30;99.90;;;;;;5123107;27;37529;-78
2021/11/17 06:18:24;;;;;;;88.37;36.87;;;9.40;99.90;;;;;;5144611;27;39553;-76
2021/11/17 06:20:51;;;;;;;95.33;38.63;;;9.40;99.90;;;;;;5138214;27;38480;-77
2021/11/17 06:23:22;;;;;;;116.00;44.73;;;9.40;99.90;;;;;;5137529;27;37980;-77
2021/11/17 06:25:48;;;;;;;89.07;37.77;;;9.50;99.90;;;;;;5119856;27;37861;-76
2021/11/17 06:28:20;;;;;;;89.60;38.20;;;9.60;99.90;;;;;;5120188;27;38799;-77
2021/11/17 06:30:46;;;;;;;92.37;39.07;;;9.60;99.90;;;;;;5121999;27;38692;-76
2021/11/17 06:33:12;;;;;;;93.17;38.23;;;9.60;99.90;;;;;;5115091;27;36987;-76
2021/11/17 06:35:40;;;;;;;96.33;38.07;;;9.60;99.90;;;;;;5138523;27;40018;-77
2021/11/17 06:38:07;;;;;;;87.23;38.27;;;9.60;99.90;;;;;;5141389;27;39639;-76
2021/11/17 06:40:36;;;;;;;91.33;38.00;;;9.60;99.90;;;;;;5134142;27;39221;-77
2021/11/17 06:43:02;;;;;;;104.33;40.17;;;9.60;99.90;;;;;;5131992;27;37683;-77
2021/11/17 06:45:31;;;;;;;94.90;39.33;;;9.70;99.90;;;;;;5141256;27;38728;-78
2021/11/17 06:47:59;;;;;;;92.73;39.47;;;9.70;99.90;;;;;;5139336;27;38844;-78
2021/11/17 06:50:25;;;;;;;97.50;41.80;;;9.70;99.90;;;;;;5134725;27;38793;-77
2021/11/17 06:52:52;;;;;;;91.73;39.30;;;9.70;99.90;;;;;;5140036;27;37645;-76
2021/11/17 06:55:19;;;;;;;108.97;41.97;;;9.70;99.90;;;;;;5138365;27;38901;-77
2021/11/17 06:57:46;;;;;;;96.50;40.73;;;9.70;99.90;;;;;;5135300;27;40119;-77
2021/11/17 07:00:25;;;;;;;96.37;41.10;;;9.80;99.90;;;;;;5137405;27;38495;-77
2021/11/17 07:02:51;;;;;;;100.50;41.53;;;9.80;99.90;;;;;;5138873;27;37241;-77
2021/11/17 07:05:19;;;;;;;92.37;40.30;;;9.80;99.90;;;;;;5137406;27;40000;-77
2021/11/17 07:07:46;;;;;;;121.30;46.17;;;9.80;99.90;;;;;;5136005;27;38912;-77
2021/11/17 07:10:14;;;;;;;107.80;43.60;;;9.90;99.90;;;;;;5139618;27;38900;-77
2021/11/17 07:12:41;;;;;;;108.43;44.93;;;10.00;99.90;;;;;;5127717;27;37654;-77
2021/11/17 07:15:10;;;;;;;103.07;43.70;;;9.90;99.90;;;;;;5131513;27;40407;-78
2021/11/17 07:17:36;;;;;;;111.00;44.17;;;10.00;99.90;;;;;;5128869;27;38879;-78
2021/11/17 07:20:05;;;;;;;113.77;47.73;;;10.00;99.90;;;;;;5130600;27;39295;-78
2021/11/17 07:22:31;;;;;;;117.90;46.27;;;10.00;99.90;;;;;;5147144;27;46926;-77
2021/11/17 07:24:57;;;;;;;131.63;50.13;;;10.10;99.90;;;;;;5145708;27;38088;-76
2021/11/17 07:27:23;;;;;;;124.00;46.60;;;10.10;99.90;;;;;;5131941;27;38984;-78
2021/11/17 07:29:55;;;;;;;128.37;49.93;;;10.10;99.90;;;;;;5120282;27;39310;-77
2021/11/17 07:32:22;;;;;;;120.83;48.70;;;10.10;99.90;;;;;;5127340;27;36478;-78
2021/11/17 07:34:49;;;;;;;123.37;49.73;;;10.20;99.90;;;;;;5137869;27;37828;-77
2021/11/17 07:37:15;;;;;;;118.57;47.73;;;10.10;99.90;;;;;;5131008;27;38916;-79
2021/11/17 07:39:41;;;;;;;115.07;46.43;;;10.20;99.90;;;;;;5132954;27;38662;-79
2021/11/17 07:42:08;;;;;;;123.77;48.73;;;10.20;99.90;;;;;;5116554;27;36772;-78
2021/11/17 07:44:34;;;;;;;149.93;53.93;;;10.20;99.90;;;;;;5137229;27;39724;-79
2021/11/17 07:47:01;;;;;;;160.13;56.40;;;10.20;99.90;;;;;;5133920;27;38727;-79
2021/11/17 07:49:28;;;;;;;158.47;55.33;;;10.20;99.90;;;;;;5131943;27;48418;-79
2021/11/17 07:51:55;;;;;;;136.03;53.67;;;10.30;99.90;;;;;;5131204;27;36398;-80
2021/11/17 07:54:23;;;;;;;119.27;48.37;;;10.30;99.90;;;;;;5127245;27;39187;-79
2021/11/17 07:56:49;;;;;;;146.43;53.50;;;10.30;99.90;;;;;;5128032;27;39516;-78
2021/11/17 07:59:20;;;;;;;127.33;51.27;;;10.30;99.90;;;;;;5114408;27;38721;-78
2021/11/17 08:01:48;;;;;;;125.00;48.83;;;10.30;99.90;;;;;;5116032;27;38950;-79
2021/11/17 08:04:14;;;;;;;112.43;47.03;;;10.40;99.90;;;;;;5121443;27;40253;-78
2021/11/17 08:06:42;;;;;;;109.57;47.43;;;10.50;99.90;;;;;;5139458;27;38534;-78
2021/11/17 08:09:09;;;;;;;104.97;44.77;;;10.60;99.90;;;;;;5126633;27;38944;-78
2021/11/17 08:11:37;;;;;;;125.47;49.40;;;10.70;99.90;;;;;;5133082;27;37307;-78
2021/11/17 08:14:03;;;;;;;118.60;48.73;;;10.70;99.90;;;;;;5122555;27;39935;-80
2021/11/17 08:16:29;;;;;;;128.20;49.97;;;10.70;99.90;;;;;;5122796;27;39744;-78
2021/11/17 08:18:55;;;;;;;95.80;44.03;;;10.80;99.90;;;;;;5128470;27;40155;-78
2021/11/17 08:21:22;;;;;;;99.80;43.80;;;10.80;99.90;;;;;;5134789;27;38164;-79
2021/11/17 08:23:48;;;;;;;120.20;48.13;;;10.80;99.90;;;;;;5135720;27;39789;-79
2021/11/17 08:26:17;;;;;;;106.87;45.80;;;10.90;99.90;;;;;;5130717;27;36390;-79
2021/11/17 08:28:43;;;;;;;105.00;45.97;;;10.90;99.90;;;;;;5138689;27;39121;-78
2021/11/17 08:31:12;;;;;;;99.73;44.40;;;11.00;99.90;;;;;;5140648;27;37863;-79
2021/11/17 08:33:40;;;;;;;102.90;45.43;;;11.00;99.90;;;;;;5131132;27;39151;-80
2021/11/17 08:36:07;;;;;;;116.87;46.10;;;11.00;99.90;;;;;;5134593;27;39046;-78
2021/11/17 08:38:38;;;;;;;90.97;42.70;;;11.10;99.90;;;;;;5134188;27;40067;-79
2021/11/17 08:41:08;;;;;;;88.93;42.73;;;11.20;99.90;;;;;;5136350;27;39003;-79
2021/11/17 08:43:35;;;;;;;93.00;42.93;;;11.30;99.90;;;;;;5136775;27;39212;-78
2021/11/17 08:46:02;;;;;;;89.90;40.43;;;11.40;99.90;;;;;;5132251;27;39178;-78
2021/11/17 08:48:32;;;;;;;90.50;40.53;;;11.40;99.90;;;;;;5133182;27;39311;-78
2021/11/17 08:51:01;;;;;;;98.43;43.13;;;11.50;99.90;;;;;;5134248;27;38756;-77
2021/11/17 08:53:31;;;;;;;77.37;39.20;;;11.50;99.90;;;;;;5141657;27;46972;-79
2021/11/17 08:55:58;;;;;;;74.70;36.83;;;11.50;99.90;;;;;;5132119;27;37632;-79
2021/11/17 08:58:26;;;;;;;77.47;38.67;;;11.50;99.90;;;;;;5141794;27;38723;-79
2021/11/17 09:00:53;;;;;;;91.90;40.83;;;11.50;99.90;;;;;;5136500;27;37795;-78
2021/11/17 09:03:20;;;;;;;81.80;37.87;;;11.50;99.90;;;;;;5141198;27;38897;-77
2021/11/17 09:05:50;;;;;;;72.87;34.90;;;11.50;99.90;;;;;;5128255;27;39353;-78
2021/11/17 09:08:18;;;;;;;81.57;37.23;;;11.50;99.90;;;;;;5136471;27;39388;-78
2021/11/17 09:10:52;;;;;;;91.13;40.03;;;11.50;99.90;;;;;;5134800;27;37831;-79
2021/11/17 09:13:19;;;;;;;93.73;40.00;;;11.50;99.90;;;;;;5138896;27;39690;-80
2021/11/17 09:15:48;;;;;;;78.80;35.67;;;11.60;99.90;;;;;;5126142;27;39211;-79
2021/11/17 09:18:16;;;;;;;67.20;34.90;;;11.60;99.90;;;;;;5136973;27;38141;-78
2021/11/17 09:20:42;;;;;;;74.10;35.13;;;11.70;99.90;;;;;;5131051;27;38112;-77
2021/11/17 09:23:11;;;;;;;74.77;34.60;;;11.70;99.90;;;;;;5135377;27;39090;-78
2021/11/17 09:25:38;;;;;;;69.77;32.30;;;11.80;99.90;;;;;;5129907;27;37879;-78
2021/11/17 09:28:05;;;;;;;74.43;32.23;;;11.90;99.90;;;;;;5135639;27;38560;-78
2021/11/17 09:30:35;;;;;;;66.33;32.73;;;12.10;99.90;;;;;;5143845;27;37698;-78
2021/11/17 09:33:04;;;;;;;51.80;28.33;;;12.20;99.90;;;;;;5141966;27;37587;-79
2021/11/17 09:35:33;;;;;;;52.60;27.30;;;12.20;99.90;;;;;;5141694;27;40180;-78
2021/11/17 09:38:02;;;;;;;56.60;27.25;;;12.30;99.90;;;;;;5132184;27;40525;-79
2021/11/17 09:40:33;;;;;;;47.97;26.05;;;12.40;99.90;;;;;;5142265;27;47241;-79
2021/11/17 09:43:00;;;;;;;55.60;27.50;;;12.40;99.90;;;;;;5156574;27;38986;-79
2021/11/17 09:45:27;;;;;;;44.33;23.42;;;12.40;99.90;;;;;;5138450;27;38849;-78
2021/11/17 09:47:55;;;;;;;39.83;20.65;;;12.40;99.90;;;;;;5130393;27;40096;-79
2021/11/17 09:50:37;;;;;;;34.00;16.15;;;12.40;99.90;;;;;;5138665;27;38510;-76
2021/11/17 09:53:11;;;;;;;35.80;15.63;;;12.50;99.90;;;;;;5138861;27;39822;-79
2021/11/17 09:55:55;;;;;;;25.55;10.88;;;12.60;99.90;;;;;;5133131;27;38150;-76
2021/11/17 09:58:27;;;;;;;19.17;7.25;;;12.80;99.90;;;;;;5130861;27;38970;-78
2021/11/17 10:01:04;;;;;;;;;;;12.90;99.90;;;;;;5132311;27;38138;-79
2021/11/17 10:03:36;;;;;;;19.77;5.43;;;13.00;99.90;;;;;;5126144;27;48048;-77
2021/11/17 10:14:28;;;;;;;;;;;13.30;99.90;;;;;;5127311;27;37993;-78
2021/11/17 10:16:55;;;;;;;18.65;3.72;;;13.20;99.90;;;;;;5132889;27;39188;-77
2021/11/17 10:19:34;;;;;;;30.00;3.33;;;13.10;99.90;;;;;;5130688;27;38931;-79
2021/11/17 10:22:11;;;;;;;20.83;4.20;;;13.00;99.90;;;;;;5128824;27;37272;-78
2021/11/17 10:24:50;;;;;;;24.00;3.75;;;13.00;99.90;;;;;;5138364;27;48418;-78
2021/11/17 10:27:21;;;;;;;14.10;2.97;;;13.00;99.90;;;;;;5137168;27;38347;-79
2021/11/17 10:30:08;;;;;;;26.52;3.28;;;12.90;99.90;;;;;;5143713;27;38449;-79
2021/11/17 10:32:39;;;;;;;17.45;3.25;;;12.90;99.90;;;;;;5140411;27;47772;-79
2021/11/17 10:35:24;;;;;;;24.42;3.58;;;13.00;99.90;;;;;;5146035;27;38860;-79
2021/11/17 10:38:20;;;;;;;19.43;4.33;;;13.00;99.90;;;;;;5157698;27;38724;-78
2021/11/17 10:40:49;;;;;;;20.13;3.55;;;13.00;99.90;;;;;;5137470;27;48648;-79
2021/11/17 10:43:23;;;;;;;21.42;3.67;;;13.10;99.90;;;;;;5135550;27;38583;-79
2021/11/17 10:46:18;;;;;;;21.00;4.20;;;13.30;99.90;;;;;;5138589;27;40453;-80
2021/11/17 10:49:00;;;;;;;19.02;3.95;;;13.50;99.90;;;;;;5138691;27;48404;-79
2021/11/17 10:51:32;;;;;;;14.48;3.17;;;13.60;99.90;;;;;;5145661;27;40143;-78
2021/11/17 10:54:05;;;;;;;23.27;4.50;;;13.60;99.90;;;;;;5133657;27;39356;-79
2021/11/17 10:56:31;;;;;;;25.17;3.55;;;13.50;99.90;;;;;;5137722;27;46905;-79
2021/11/17 10:58:59;;;;;;;23.17;3.85;;;13.30;99.90;;;;;;5136604;27;38677;-79
2021/11/17 11:01:41;;;;;;;21.20;3.40;;;13.30;99.90;;;;;;5141365;27;39895;-79
2021/11/17 11:04:18;;;;;;;25.30;4.25;;;13.30;99.90;;;;;;5155458;27;37512;-78
2021/11/17 11:07:16;;;;;;;25.02;4.07;;;13.30;99.90;;;;;;5128133;27;38899;-79
2021/11/17 11:09:52;;;;;;;20.67;3.40;;;13.30;99.90;;;;;;5144675;27;48454;-79
2021/11/17 11:12:23;;;;;;;32.97;4.80;;;13.30;99.90;;;;;;5130832;27;39228;-80
2021/11/17 11:14:53;;;;;;;24.15;4.07;;;13.30;99.90;;;;;;5145373;27;37904;-78
2021/11/17 11:17:42;;;;;;;18.50;4.05;;;13.30;99.90;;;;;;5137723;27;39758;-78
2021/11/17 11:20:17;;;;;;;22.80;4.22;;;13.30;99.90;;;;;;5140061;27;38800;-80
2021/11/17 11:23:04;;;;;;;20.20;3.40;;;13.30;99.90;;;;;;5121352;27;38895;-79
2021/11/17 11:25:56;;;;;;;21.75;3.40;;;13.30;99.90;;;;;;5167779;27;48684;-79
2021/11/17 11:28:22;;;;;;;20.98;3.35;;;13.30;99.90;;;;;;5168902;27;42837;-80
2021/11/17 11:31:11;;;;;;;20.23;4.20;;;13.50;99.90;;;;;;5166390;27;38904;-79
2021/11/17 11:34:13;;;;;;;16.52;3.08;;;13.60;99.90;;;;;;5136128;27;47195;-79
2021/11/17 11:36:46;;;;;;;16.70;3.05;;;13.70;99.90;;;;;;5137799;27;47351;-78
2021/11/17 11:39:12;;;;;;;14.48;3.13;;;13.80;99.90;;;;;;5165699;27;38563;-79
2021/11/17 11:41:59;;;;;;;22.85;4.05;;;13.70;99.90;;;;;;5157204;27;38792;-78
2021/11/17 11:44:36;;;;;;;19.90;3.60;;;13.70;99.90;;;;;;5147466;27;39301;-79
2021/11/17 11:47:02;;;;;;;17.77;3.42;;;13.50;99.90;;;;;;5142616;27;36183;-78
2021/11/17 11:49:49;;;;;;;29.00;3.55;;;13.40;99.90;;;;;;5145407;27;39332;-79
2021/11/17 11:52:21;;;;;;;17.35;3.13;;;13.20;99.90;;;;;;5135618;27;38719;-79
2021/11/17 11:54:50;;;;;;;13.32;3.47;;;13.20;99.90;;;;;;5136233;27;39268;-79
2021/11/17 11:57:19;;;;;;;20.05;3.45;;;13.20;99.90;;;;;;5121039;27;37927;-80
2021/11/17 11:59:46;;;;;;;15.77;3.10;;;13.30;99.90;;;;;;5126154;27;39285;-78
2021/11/17 12:02:19;;;;;;;14.00;2.90;;;13.30;99.90;;;;;;5144296;27;38733;-78
2021/11/17 12:04:49;;;;;;;17.23;3.17;;;13.30;99.90;;;;;;5148215;27;38355;-79
2021/11/17 12:07:20;;;;;;;12.77;2.55;;;13.30;99.90;;;;;;5140585;27;37422;-79
2021/11/17 12:10:05;;;;;;;10.60;2.63;;;13.20;99.90;;;;;;5146382;27;40223;-78
2021/11/17 12:12:36;;;;;;;17.88;3.78;;;13.20;99.90;;;;;;5143917;27;48071;-80
2021/11/17 12:15:13;;;;;;;23.85;5.60;;;13.10;99.90;;;;;;5144529;27;38210;-79
2021/11/17 12:17:40;;;;;;;30.60;6.88;;;13.00;99.90;;;;;;5137976;27;47548;-80
2021/11/17 12:20:27;;;;;;;22.52;4.75;;;13.00;99.90;;;;;;5155457;27;39758;-78
2021/11/17 12:22:57;;;;;;;20.20;3.30;;;13.00;99.90;;;;;;5143970;27;38086;-78
2021/11/17 12:25:31;;;;;;;17.73;4.35;;;13.00;99.90;;;;;;5164099;27;38575;-79
2021/11/17 12:28:14;;;;;;;16.48;2.95;;;13.00;99.90;;;;;;5148120;27;36427;-78
2021/11/17 12:31:03;;;;;;;13.98;2.95;;;13.00;99.90;;;;;;5135194;27;47231;-79
2021/11/17 12:33:50;;;;;;;16.65;3.13;;;13.10;99.90;;;;;;5151900;27;47081;-79
2021/11/17 12:36:27;;;;;;;14.57;2.67;;;13.00;99.90;;;;;;5141645;27;37876;-78
2021/11/17 12:38:54;;;;;;;24.50;3.53;;;13.00;99.90;;;;;;5152287;27;36092;-79
2021/11/17 12:41:23;;;;;;;24.45;3.83;;;12.90;99.90;;;;;;5178830;27;39026;-79
2021/11/17 12:44:00;;;;;;;16.65;3.20;;;12.80;99.90;;;;;;5140346;27;39491;-79
2021/11/17 12:46:35;;;;;;;22.23;3.22;;;12.80;99.90;;;;;;5149582;27;38949;-79
2021/11/17 12:49:29;;;;;;;21.20;4.20;;;12.80;99.90;;;;;;5141579;27;36201;-79
2021/11/17 12:52:19;;;;;;;25.23;3.75;;;12.80;99.90;;;;;;5158643;27;40119;-79
2021/11/17 12:54:53;;;;;;;18.55;3.45;;;12.70;99.90;;;;;;5157239;27;49037;-79
2021/11/17 12:57:24;;;;;;;16.05;4.03;;;12.70;99.90;;;;;;5141358;27;37455;-79
2021/11/17 12:59:54;;;;;;;34.10;4.33;;;12.70;99.90;;;;;;5157638;27;37453;-79
2021/11/17 13:02:23;;;;;;;25.20;4.53;;;12.80;99.90;;;;;;5159655;27;38386;-79
2021/11/17 13:05:13;;;;;;;20.80;3.80;;;12.80;99.90;;;;;;5132731;27;38168;-78
2021/11/17 13:07:49;;;;;;;19.42;3.92;;;12.80;99.90;;;;;;5137551;27;47551;-80
2021/11/17 13:10:44;;;;;;;14.15;3.10;;;12.80;99.90;;;;;;5137127;27;37307;-80
2021/11/17 13:13:21;;;;;;;29.23;4.07;;;12.80;99.90;;;;;;5135972;27;39905;-79
2021/11/17 13:15:56;;;;;;;22.27;4.53;;;12.80;99.90;;;;;;5133279;27;38088;-79
2021/11/17 13:18:34;;;;;;;22.70;3.73;;;12.80;99.90;;;;;;5133464;27;39818;-79
2021/11/17 13:21:16;;;;;;;18.58;3.40;;;12.70;99.90;;;;;;5139067;27;38159;-78
2021/11/17 13:23:46;;;;;;;23.75;3.83;;;12.70;99.90;;;;;;5131487;27;47313;-79
2021/11/17 13:26:15;;;;;;;18.30;3.58;;;12.70;99.90;;;;;;5154864;27;39069;-77
2021/11/17 13:28:49;;;;;;;26.83;3.72;;;12.70;99.90;;;;;;5134156;27;38894;-78
2021/11/17 13:31:24;;;;;;;22.47;3.97;;;12.60;99.90;;;;;;5138026;27;38977;-78
2021/11/17 13:33:56;;;;;;;27.30;4.28;;;12.60;99.90;;;;;;5169678;27;38903;-79
2021/11/17 13:36:40;;;;;;;21.83;3.65;;;12.60;99.90;;;;;;5133640;27;40314;-79
2021/11/17 13:39:07;;;;;;;22.40;4.65;;;12.60;99.90;;;;;;5133703;27;38632;-78
2021/11/17 13:41:36;;;;;;;23.97;4.20;;;12.50;99.90;;;;;;5160988;27;37900;-77
2021/11/17 13:44:03;;;;;;;23.85;5.10;;;12.40;99.90;;;;;;5148319;27;38380;-79
2021/11/17 13:46:30;;;;;;;25.43;4.30;;;12.30;99.90;;;;;;5161007;27;38954;-80
2021/11/17 13:48:56;;;;;;;25.03;4.50;;;12.30;99.90;;;;;;5146946;27;38814;-78
2021/11/17 13:51:26;;;;;;;26.80;3.90;;;12.20;99.90;;;;;;5152820;27;37132;-79
2021/11/17 13:53:54;;;;;;;25.30;4.00;;;12.20;99.90;;;;;;5158355;27;38721;-78
2021/11/17 13:56:30;;;;;;;18.03;3.30;;;12.20;99.90;;;;;;5162184;27;38794;-80
2021/11/17 13:58:57;;;;;;;21.87;4.47;;;12.10;99.90;;;;;;5151559;27;38925;-79
2021/11/17 14:01:24;;;;;;;21.07;4.30;;;12.10;99.90;;;;;;5147006;27;36466;-78
2021/11/17 14:03:50;;;;;;;26.17;4.03;;;12.20;99.90;;;;;;5157460;27;38905;-79
2021/11/17 14:06:19;;;;;;;24.58;3.80;;;12.30;99.90;;;;;;5169379;27;39503;-78
2021/11/17 14:08:46;;;;;;;23.83;4.33;;;12.30;99.90;;;;;;5169274;27;38349;-78
2021/11/17 14:11:15;;;;;;;32.97;4.60;;;12.30;99.90;;;;;;5134036;27;38042;-79
2021/11/17 14:13:42;;;;;;;21.27;3.30;;;12.20;99.90;;;;;;5141544;27;39719;-78
2021/11/17 14:16:09;;;;;;;22.02;3.88;;;12.30;99.90;;;;;;5164007;27;39865;-78
2021/11/17 14:18:35;;;;;;;21.23;3.57;;;12.30;99.90;;;;;;5162596;27;40764;-79
2021/11/17 14:21:04;;;;;;;26.53;3.67;;;12.20;99.90;;;;;;5143466;27;37949;-80
2021/11/17 14:23:30;;;;;;;16.00;3.30;;;12.20;99.90;;;;;;5149960;27;39591;-78
2021/11/17 14:25:56;;;;;;;17.48;3.03;;;12.10;99.90;;;;;;5160232;27;39349;-78
2021/11/17 14:28:27;;;;;;;20.90;3.30;;;12.10;99.90;;;;;;5157196;27;39449;-79
2021/11/17 14:30:58;;;;;;;16.33;2.97;;;12.10;99.90;;;;;;5153226;27;38419;-80
2021/11/17 14:33:31;;;;;;;17.10;4.50;;;12.00;99.90;;;;;;5151045;27;39725;-79
2021/11/17 14:35:58;;;;;;;18.47;3.10;;;12.00;99.90;;;;;;5133668;27;37900;-79
2021/11/17 14:38:25;;;;;;;17.63;2.90;;;11.90;99.90;;;;;;5166687;27;38313;-78
2021/11/17 14:40:53;;;;;;;21.27;3.60;;;11.90;99.90;;;;;;5166362;27;36926;-78
2021/11/17 14:43:22;;;;;;;16.00;3.20;;;11.90;99.90;;;;;;5135710;27;39267;-80
2021/11/17 14:45:49;;;;;;;13.67;2.37;;;11.90;99.90;;;;;;5152681;27;39709;-78
2021/11/17 14:48:16;;;;;;;20.77;4.37;;;11.90;99.90;;;;;;5144176;27;38140;-78
2021/11/17 14:50:43;;;;;;;17.97;3.13;;;11.90;99.90;;;;;;5162137;27;37228;-78
2021/11/17 14:53:11;;;;;;;16.57;3.00;;;11.90;99.90;;;;;;5136936;27;39101;-79
2021/11/17 14:55:38;;;;;;;18.80;3.37;;;11.80;99.90;;;;;;5158715;27;38459;-80
2021/11/17 14:58:04;;;;;;;21.43;3.67;;;11.80;99.90;;;;;;5159966;27;38221;-78
2021/11/17 15:00:44;;;;;;;25.30;3.80;;;11.80;99.90;;;;;;5150912;27;37307;-78
2021/11/17 15:03:11;;;;;;;21.10;3.73;;;11.90;99.90;;;;;;5145468;27;37157;-78
2021/11/17 15:05:37;;;;;;;19.27;3.40;;;11.90;99.90;;;;;;5145819;27;38720;-79
2021/11/17 15:08:05;;;;;;;16.93;3.30;;;11.90;99.90;;;;;;5129453;27;40781;-78
2021/11/17 15:10:31;;;;;;;15.17;2.83;;;11.80;99.90;;;;;;5123897;27;38254;-79
2021/11/17 15:12:57;;;;;;;18.60;2.73;;;11.90;99.90;;;;;;5123012;27;39057;-79
2021/11/17 15:15:31;;;;;;;16.07;3.40;;;11.80;99.90;;;;;;5129407;27;39560;-79
2021/11/17 15:17:57;;;;;;;15.47;2.80;;;11.80;99.90;;;;;;5142968;27;39197;-78
2021/11/17 15:20:24;;;;;;;16.40;2.80;;;11.80;99.90;;;;;;5144401;27;36784;-78
2021/11/17 15:22:50;;;;;;;16.53;3.13;;;11.80;99.90;;;;;;5121039;27;40312;-78
2021/11/17 15:25:24;;;;;;;17.93;3.37;;;11.90;99.90;;;;;;5158726;27;38498;-78
2021/11/17 15:27:59;;;;;;;14.17;2.93;;;11.80;99.90;;;;;;5130808;27;39391;-80
2021/11/17 15:30:30;;;;;;;19.97;3.73;;;11.80;99.90;;;;;;5131875;27;37186;-78
2021/11/17 15:32:57;;;;;;;22.90;3.93;;;11.70;99.90;;;;;;5129363;27;39561;-78
2021/11/17 15:35:26;;;;;;;17.20;3.30;;;11.70;99.90;;;;;;5149870;27;38952;-79
2021/11/17 15:37:53;;;;;;;14.83;2.80;;;11.70;99.90;;;;;;5166817;27;38078;-78
2021/11/17 15:40:27;;;;;;;12.47;3.30;;;11.80;99.90;;;;;;5143534;27;37279;-78
2021/11/17 15:42:54;;;;;;;14.07;3.10;;;11.90;99.90;;;;;;5139002;27;40358;-80
2021/11/17 15:45:21;;;;;;;15.13;3.77;;;11.80;99.90;;;;;;5158614;27;38778;-79